Time;durP1;ratioP1;P1;durP2;ratioP2;P2;SDS_P1;SDS_P2;PMS_P1;PMS_P2;Temp;Humidity;BMP_temperature;BMP_pressure;BME280_temperature;BME280_humidity;BME280_pressure;Samples;Min_cycle;Max_cycle;Signal;HPM_P1;HPM_P2
2022/03/05 00:01:00;;;;;;;47.75;28.90;;;;;;;;;;4938841;29;20079;-71
2022/03/05 00:03:26;;;;;;;45.78;28.02;;;;;;;;;;4936855;29;20074;-70
2022/03/05 00:05:53;;;;;;;45.47;27.92;;;;;;;;;;4936791;29;20040;-70
2022/03/05 00:08:22;;;;;;;46.45;27.40;;;;;;;;;;4939686;29;20473;-70
2022/03/05 00:10:49;;;;;;;46.88;28.40;;;;;;;;;;4936103;29;20063;-71
2022/03/05 00:13:15;;;;;;;47.55;28.20;;;;;;;;;;4936772;29;20024;-71
2022/03/05 00:15:43;;;;;;;49.70;28.52;;;;;;;;;;4937691;29;20054;-71
2022/03/05 00:18:09;;;;;;;51.65;29.52;;;;;;;;;;4937185;29;20031;-70
2022/03/05 00:20:35;;;;;;;51.90;27.90;;;;;;;;;;4937237;29;20446;-71
2022/03/05 00:23:01;;;;;;;47.63;29.15;;;;;;;;;;4936534;29;20106;-71
2022/03/05 00:25:27;;;;;;;48.38;27.65;;;;;;;;;;4936770;29;20392;-70
2022/03/05 00:27:54;;;;;;;49.92;29.05;;;;;;;;;;4938942;29;20038;-72
2022/03/05 00:30:21;;;;;;;47.65;28.98;;;;;;;;;;4935276;29;20035;-71
2022/03/05 00:32:47;;;;;;;51.75;28.67;;;;;;;;;;4936115;29;20381;-71
2022/03/05 00:35:15;;;;;;;50.85;29.52;;;;;;;;;;4937037;29;20051;-70
2022/03/05 00:37:41;;;;;;;51.20;29.33;;;;;;;;;;4935505;29;20397;-70
2022/03/05 00:40:09;;;;;;;51.40;29.52;;;;;;;;;;4937488;29;20059;-70
2022/03/05 00:42:35;;;;;;;51.58;29.10;;;;;;;;;;4936139;29;20490;-70
2022/03/05 00:45:05;;;;;;;49.38;29.42;;;;;;;;;;4936080;29;20111;-71
2022/03/05 00:47:32;;;;;;;52.90;29.55;;;;;;;;;;4936666;29;20111;-72
2022/03/05 00:49:59;;;;;;;50.83;29.95;;;;;;;;;;4935985;29;20474;-71
2022/03/05 00:52:26;;;;;;;53.65;29.42;;;;;;;;;;4935881;29;20409;-72
2022/03/05 00:54:54;;;;;;;53.10;31.13;;;;;;;;;;4935744;29;20114;-72
2022/03/05 00:57:20;;;;;;;51.40;30.58;;;;;;;;;;4936563;29;20458;-72
2022/03/05 00:59:46;;;;;;;51.65;30.13;;;;;;;;;;4935697;29;20024;-70
2022/03/05 01:02:12;;;;;;;51.40;30.98;;;;;;;;;;4937449;29;20052;-70
2022/03/05 01:04:38;;;;;;;53.63;30.00;;;;;;;;;;4935657;29;20123;-70
2022/03/05 01:07:04;;;;;;;51.58;30.80;;;;;;;;;;4934600;29;20389;-71
2022/03/05 01:09:32;;;;;;;50.78;30.65;;;;;;;;;;4936323;29;20046;-71
2022/03/05 01:11:58;;;;;;;52.20;30.25;;;;;;;;;;4935401;29;20495;-71
2022/03/05 01:14:25;;;;;;;53.55;30.15;;;;;;;;;;4935536;29;20032;-71
2022/03/05 01:16:52;;;;;;;53.03;30.88;;;;;;;;;;4934499;29;20458;-71
2022/03/05 01:19:18;;;;;;;50.08;30.55;;;;;;;;;;4940355;29;20042;-70
2022/03/05 01:21:44;;;;;;;51.20;30.60;;;;;;;;;;4941067;29;20028;-70
2022/03/05 01:24:10;;;;;;;51.28;28.48;;;;;;;;;;4939461;29;20094;-71
2022/03/05 01:26:36;;;;;;;51.42;29.65;;;;;;;;;;4939312;29;20039;-71
2022/03/05 01:29:02;;;;;;;47.67;28.73;;;;;;;;;;4940852;29;20051;-71
2022/03/05 01:31:28;;;;;;;51.42;28.33;;;;;;;;;;4939550;29;20498;-70
2022/03/05 01:33:54;;;;;;;49.72;28.75;;;;;;;;;;4943170;29;20466;-70
2022/03/05 01:36:20;;;;;;;47.10;28.95;;;;;;;;;;4947512;29;20032;-70
2022/03/05 01:38:47;;;;;;;51.33;29.23;;;;;;;;;;4944047;29;20561;-72
2022/03/05 01:41:16;;;;;;;53.13;29.60;;;;;;;;;;4941950;29;20429;-72
2022/03/05 01:43:42;;;;;;;49.92;29.90;;;;;;;;;;4940034;29;20119;-70
2022/03/05 01:46:08;;;;;;;47.10;28.30;;;;;;;;;;4943295;29;20032;-74
2022/03/05 01:48:35;;;;;;;45.83;26.92;;;;;;;;;;4941701;29;20028;-71
2022/03/05 01:51:03;;;;;;;44.75;27.42;;;;;;;;;;4944908;29;20043;-71
2022/03/05 01:53:29;;;;;;;48.47;28.00;;;;;;;;;;4943877;29;20114;-70
2022/03/05 01:55:55;;;;;;;46.72;27.90;;;;;;;;;;4943024;29;20030;-71
2022/03/05 01:58:21;;;;;;;48.28;28.40;;;;;;;;;;4942033;29;20474;-71
2022/03/05 02:00:47;;;;;;;51.05;28.02;;;;;;;;;;4941095;29;20051;-70
2022/03/05 02:03:13;;;;;;;43.67;27.00;;;;;;;;;;4941953;29;20048;-70
2022/03/05 02:05:40;;;;;;;44.10;25.98;;;;;;;;;;4939137;29;20028;-69
2022/03/05 02:08:06;;;;;;;40.35;25.30;;;;;;;;;;4943590;29;20042;-71
2022/03/05 02:10:33;;;;;;;45.13;26.77;;;;;;;;;;4945905;29;20027;-72
2022/03/05 02:12:59;;;;;;;44.88;26.80;;;;;;;;;;4946044;29;20044;-71
2022/03/05 02:15:27;;;;;;;46.88;28.33;;;;;;;;;;4942694;29;20087;-71
2022/03/05 02:17:54;;;;;;;46.65;27.25;;;;;;;;;;4942677;29;20031;-74
2022/03/05 02:20:22;;;;;;;49.92;28.08;;;;;;;;;;4939886;29;20030;-70
2022/03/05 02:22:48;;;;;;;48.45;26.80;;;;;;;;;;4942350;29;20385;-70
2022/03/05 02:25:14;;;;;;;46.88;27.48;;;;;;;;;;4940565;29;20032;-70
2022/03/05 02:27:40;;;;;;;46.83;27.50;;;;;;;;;;4940323;29;20082;-70
2022/03/05 02:30:07;;;;;;;48.70;27.50;;;;;;;;;;4939594;29;20035;-72
2022/03/05 02:32:34;;;;;;;50.05;28.00;;;;;;;;;;4941528;29;20035;-71
2022/03/05 02:35:00;;;;;;;47.30;28.65;;;;;;;;;;4940720;29;20071;-72
2022/03/05 02:37:26;;;;;;;48.78;30.13;;;;;;;;;;4941061;29;20027;-76
2022/03/05 02:39:52;;;;;;;53.05;31.50;;;;;;;;;;4941907;29;20004;-72
2022/03/05 02:42:20;;;;;;;58.80;32.15;;;;;;;;;;4941550;29;20036;-72
2022/03/05 02:44:49;;;;;;;50.45;31.63;;;;;;;;;;4942152;29;20095;-71
2022/03/05 02:47:16;;;;;;;56.25;30.08;;;;;;;;;;4939618;29;20126;-70
2022/03/05 02:49:43;;;;;;;47.45;28.88;;;;;;;;;;4942334;29;20107;-71
2022/03/05 02:52:09;;;;;;;48.75;29.95;;;;;;;;;;4940613;29;20042;-72
2022/03/05 02:54:35;;;;;;;53.60;31.08;;;;;;;;;;4940674;29;20110;-72
2022/03/05 02:57:01;;;;;;;54.80;30.98;;;;;;;;;;4941880;29;20111;-71
2022/03/05 02:59:27;;;;;;;54.95;32.03;;;;;;;;;;4940757;29;20054;-71
2022/03/05 03:01:53;;;;;;;53.97;30.88;;;;;;;;;;4939146;29;20062;-72
2022/03/05 03:04:19;;;;;;;55.00;30.20;;;;;;;;;;4941397;29;20385;-71
2022/03/05 03:06:50;;;;;;;55.88;31.33;;;;;;;;;;4942132;29;20110;-71
2022/03/05 03:09:16;;;;;;;52.58;31.77;;;;;;;;;;4949395;29;20020;-71
2022/03/05 03:11:42;;;;;;;50.88;31.25;;;;;;;;;;4946342;29;20078;-70
2022/03/05 03:14:10;;;;;;;50.97;30.10;;;;;;;;;;4948833;29;20023;-71
2022/03/05 03:16:36;;;;;;;82.90;31.20;;;;;;;;;;4946739;29;20129;-71
2022/03/05 03:19:02;;;;;;;54.33;30.63;;;;;;;;;;4947009;29;20030;-71
2022/03/05 03:21:28;;;;;;;55.50;30.92;;;;;;;;;;4946839;29;20529;-72
2022/03/05 03:23:54;;;;;;;50.80;30.33;;;;;;;;;;4942128;29;20027;-73
2022/03/05 03:26:20;;;;;;;52.60;30.50;;;;;;;;;;4941561;29;20059;-71
2022/03/05 03:28:46;;;;;;;47.25;29.42;;;;;;;;;;4938854;29;20020;-71
2022/03/05 03:31:14;;;;;;;51.75;31.30;;;;;;;;;;4941775;29;20051;-72
2022/03/05 03:33:40;;;;;;;49.75;30.90;;;;;;;;;;4940848;29;20024;-73
2022/03/05 03:36:06;;;;;;;53.88;30.08;;;;;;;;;;4941676;29;20023;-75
2022/03/05 03:38:34;;;;;;;51.25;30.73;;;;;;;;;;4942317;29;20083;-71
2022/03/05 03:41:00;;;;;;;50.80;29.55;;;;;;;;;;4941002;29;20114;-77
2022/03/05 03:43:28;;;;;;;50.95;30.55;;;;;;;;;;4940214;29;20042;-73
2022/03/05 03:45:54;;;;;;;50.13;29.25;;;;;;;;;;4941406;29;20154;-71
2022/03/05 03:48:20;;;;;;;55.25;29.67;;;;;;;;;;4943224;29;20038;-72
2022/03/05 03:50:46;;;;;;;54.58;30.90;;;;;;;;;;4941553;29;20568;-72
2022/03/05 03:53:14;;;;;;;50.72;30.52;;;;;;;;;;4939003;29;20114;-71
2022/03/05 03:55:42;;;;;;;52.72;30.58;;;;;;;;;;4940445;29;20078;-71
2022/03/05 03:58:08;;;;;;;53.53;31.55;;;;;;;;;;4939317;29;20061;-71
2022/03/05 04:00:34;;;;;;;52.60;29.80;;;;;;;;;;4939017;29;20052;-71
2022/03/05 04:03:00;;;;;;;50.05;29.77;;;;;;;;;;4940171;29;20087;-71
2022/03/05 04:05:26;;;;;;;50.33;29.40;;;;;;;;;;4940399;29;20031;-72
2022/03/05 04:10:39;;;;;;;50.97;30.48;;;;;;;;;;4945251;29;20393;-71
2022/03/05 04:13:08;;;;;;;55.70;30.33;;;;;;;;;;4940174;29;20031;-73
2022/03/05 04:15:34;;;;;;;54.65;29.77;;;;;;;;;;4938905;29;20027;-71
2022/03/05 04:18:00;;;;;;;51.80;31.38;;;;;;;;;;4942321;29;20458;-73
2022/03/05 04:20:30;;;;;;;56.60;31.50;;;;;;;;;;4944075;29;20032;-70
2022/03/05 04:22:59;;;;;;;57.38;33.38;;;;;;;;;;4938610;29;20031;-71
2022/03/05 04:25:26;;;;;;;62.80;35.63;;;;;;;;;;4940788;29;20054;-72
2022/03/05 04:27:52;;;;;;;88.30;44.55;;;;;;;;;;4941670;29;20426;-72
2022/03/05 04:30:18;;;;;;;76.18;40.15;;;;;;;;;;4939879;29;20106;-71
2022/03/05 04:32:45;;;;;;;77.63;41.10;;;;;;;;;;4942668;29;20034;-72
2022/03/05 04:35:12;;;;;;;76.22;41.33;;;;;;;;;;4938235;29;20042;-71
2022/03/05 04:37:39;;;;;;;77.30;38.58;;;;;;;;;;4939530;29;20054;-71
2022/03/05 04:40:06;;;;;;;72.15;40.05;;;;;;;;;;4937718;29;20046;-72
2022/03/05 04:42:32;;;;;;;63.85;35.90;;;;;;;;;;4944544;29;20034;-71
2022/03/05 04:44:58;;;;;;;59.30;33.30;;;;;;;;;;4941580;29;20382;-72
2022/03/05 04:47:25;;;;;;;52.13;28.95;;;;;;;;;;4941523;29;20019;-71
2022/03/05 04:49:51;;;;;;;49.00;27.38;;;;;;;;;;4943181;29;20441;-70
2022/03/05 04:52:17;;;;;;;44.45;27.35;;;;;;;;;;4937569;29;20051;-71
2022/03/05 04:54:43;;;;;;;42.70;25.38;;;;;;;;;;4938241;29;20030;-69
2022/03/05 04:57:09;;;;;;;45.47;26.98;;;;;;;;;;4939673;29;20526;-70
2022/03/05 04:59:35;;;;;;;45.10;26.27;;;;;;;;;;4937732;29;20020;-70
2022/03/05 05:02:01;;;;;;;51.67;30.25;;;;;;;;;;4941942;29;20052;-70
2022/03/05 05:04:27;;;;;;;108.05;50.45;;;;;;;;;;4937349;29;20498;-70
2022/03/05 05:06:54;;;;;;;123.30;57.60;;;;;;;;;;4937789;29;20383;-69
2022/03/05 05:09:20;;;;;;;72.60;37.78;;;;;;;;;;4938366;29;20421;-70
2022/03/05 05:11:46;;;;;;;88.40;43.38;;;;;;;;;;4937680;29;20039;-71
2022/03/05 05:14:12;;;;;;;104.35;50.10;;;;;;;;;;4934731;29;20062;-71
2022/03/05 05:16:38;;;;;;;101.75;50.67;;;;;;;;;;4942591;29;20011;-74
2022/03/05 05:21:49;;;;;;;106.43;51.78;;;;;;;;;;4938022;29;20172;-71
2022/03/05 05:24:18;;;;;;;78.88;40.75;;;;;;;;;;4940542;29;20027;-71
2022/03/05 05:26:45;;;;;;;67.32;36.63;;;;;;;;;;4945136;29;20482;-73
2022/03/05 05:29:11;;;;;;;80.00;42.20;;;;;;;;;;4940178;29;20028;-71
2022/03/05 05:31:37;;;;;;;69.95;36.25;;;;;;;;;;4934322;29;20051;-74
2022/03/05 05:34:15;;;;;;;65.35;34.22;;;;;;;;;;4936776;29;20038;-70
2022/03/05 05:36:41;;;;;;;80.63;41.97;;;;;;;;;;4946902;28;20506;-71
2022/03/05 05:39:09;;;;;;;82.68;40.42;;;;;;;;;;4935800;29;20035;-72
2022/03/05 05:41:36;;;;;;;97.00;40.00;;;;;;;;;;4936821;29;20031;-78
2022/03/05 05:44:06;;;;;;;51.33;29.38;;;;;;;;;;4940683;29;20103;-72
2022/03/05 05:46:33;;;;;;;43.70;25.95;;;;;;;;;;4940001;29;20038;-72
2022/03/05 05:48:59;;;;;;;53.65;29.83;;;;;;;;;;4941473;29;20032;-70
2022/03/05 05:51:27;;;;;;;71.50;33.83;;;;;;;;;;4942119;29;20099;-68
2022/03/05 05:53:53;;;;;;;76.82;36.60;;;;;;;;;;4941676;29;20063;-70
2022/03/05 05:56:24;;;;;;;76.57;35.58;;;;;;;;;;4944611;29;20032;-73
2022/03/05 05:58:50;;;;;;;40.03;24.73;;;;;;;;;;4945532;29;20386;-76
2022/03/05 06:01:17;;;;;;;44.17;23.65;;;;;;;;;;4939206;29;20048;-70
2022/03/05 06:03:44;;;;;;;41.70;24.80;;;;;;;;;;4941248;29;20051;-71
2022/03/05 06:06:11;;;;;;;37.13;23.70;;;;;;;;;;4950025;28;20091;-71
2022/03/05 06:08:37;;;;;;;36.45;22.60;;;;;;;;;;4955950;29;20066;-70
2022/03/05 06:11:04;;;;;;;39.70;23.92;;;;;;;;;;4954648;29;20083;-73
2022/03/05 06:13:30;;;;;;;34.22;22.48;;;;;;;;;;4951313;29;20038;-70
2022/03/05 06:15:56;;;;;;;39.40;23.55;;;;;;;;;;4942881;29;20032;-69
2022/03/05 06:18:22;;;;;;;37.45;23.02;;;;;;;;;;4944334;29;20516;-71
2022/03/05 06:20:49;;;;;;;40.33;25.55;;;;;;;;;;4949606;29;20477;-72
2022/03/05 06:23:15;;;;;;;41.05;24.75;;;;;;;;;;4953868;29;20107;-70
2022/03/05 06:25:41;;;;;;;38.33;24.10;;;;;;;;;;4949820;29;20046;-70
2022/03/05 06:28:07;;;;;;;39.40;25.98;;;;;;;;;;4953409;29;20032;-70
2022/03/05 06:30:33;;;;;;;44.33;26.98;;;;;;;;;;4944297;29;20042;-70
2022/03/05 06:33:02;;;;;;;41.40;25.85;;;;;;;;;;4950153;29;20038;-71
2022/03/05 06:35:33;;;;;;;42.67;26.10;;;;;;;;;;4949109;29;20020;-71
2022/03/05 06:37:59;;;;;;;49.78;27.52;;;;;;;;;;4949466;29;20020;-72
2022/03/05 06:40:27;;;;;;;49.33;28.13;;;;;;;;;;4936529;29;20024;-70
2022/03/05 06:42:55;;;;;;;56.10;29.20;;;;;;;;;;4945534;29;20489;-74
2022/03/05 06:45:21;;;;;;;44.38;28.85;;;;;;;;;;4944594;29;20307;-73
2022/03/05 06:47:48;;;;;;;46.70;29.50;;;;;;;;;;4940613;29;20107;-72
2022/03/05 06:50:14;;;;;;;45.60;28.60;;;;;;;;;;4940878;29;20024;-76
2022/03/05 06:52:40;;;;;;;41.33;27.88;;;;;;;;;;4939341;29;20094;-72
2022/03/05 06:55:06;;;;;;;48.20;30.98;;;;;;;;;;4939161;29;20060;-76
2022/03/05 06:57:33;;;;;;;52.40;32.85;;;;;;;;;;4932118;29;20433;-75
2022/03/05 06:59:59;;;;;;;48.80;28.38;;;;;;;;;;4939545;29;20031;-74
2022/03/05 07:02:25;;;;;;;44.00;31.85;;;;;;;;;;4943821;29;20043;-70
2022/03/05 07:04:51;;;;;;;47.80;31.98;;;;;;;;;;4941419;29;20024;-77
2022/03/05 07:07:17;;;;;;;49.50;32.20;;;;;;;;;;4946132;29;20055;-75
2022/03/05 07:09:43;;;;;;;50.28;34.10;;;;;;;;;;4948108;29;20024;-77
2022/03/05 07:12:24;;;;;;;47.20;33.08;;;;;;;;;;4948377;29;20040;-76
2022/03/05 07:14:56;;;;;;;52.20;33.03;;;;;;;;;;4947290;29;20032;-72
2022/03/05 07:17:22;;;;;;;50.40;35.78;;;;;;;;;;4965927;28;20064;-72
2022/03/05 07:19:48;;;;;;;44.85;33.28;;;;;;;;;;4942775;29;20098;-82
2022/03/05 07:22:14;;;;;;;45.67;31.80;;;;;;;;;;4953976;29;20208;-80
2022/03/05 07:24:40;;;;;;;45.08;32.45;;;;;;;;;;4925591;29;20024;-83
2022/03/05 07:27:06;;;;;;;46.67;32.65;;;;;;;;;;4928696;29;20085;-73
2022/03/05 07:29:33;;;;;;;49.10;35.88;;;;;;;;;;4932634;29;20042;-78
2022/03/05 07:31:59;;;;;;;51.00;36.13;;;;;;;;;;4928103;29;20043;-78
2022/03/05 07:34:27;;;;;;;55.70;37.17;;;;;;;;;;4937011;29;20499;-79
2022/03/05 07:36:55;;;;;;;51.45;36.85;;;;;;;;;;4935111;29;20031;-74
2022/03/05 07:39:21;;;;;;;55.03;38.03;;;;;;;;;;4929617;29;20070;-81
2022/03/05 07:41:48;;;;;;;52.53;38.42;;;;;;;;;;4934854;29;20035;-85
2022/03/05 07:44:14;;;;;;;53.65;36.30;;;;;;;;;;4936263;29;20385;-74
2022/03/05 07:46:40;;;;;;;50.45;35.63;;;;;;;;;;4936251;29;20027;-76
2022/03/05 07:49:06;;;;;;;54.95;36.72;;;;;;;;;;4931428;29;20044;-74
2022/03/05 07:51:33;;;;;;;50.22;36.45;;;;;;;;;;4934798;29;20036;-78
2022/03/05 07:53:59;;;;;;;45.83;35.30;;;;;;;;;;4938582;29;20688;-73
2022/03/05 07:56:28;;;;;;;43.83;33.88;;;;;;;;;;4934854;29;20031;-81
2022/03/05 07:58:54;;;;;;;52.17;34.50;;;;;;;;;;4932053;29;20107;-76
2022/03/05 08:01:20;;;;;;;38.13;29.73;;;;;;;;;;4934458;29;20045;-71
2022/03/05 08:03:46;;;;;;;44.78;32.78;;;;;;;;;;4936224;29;20031;-79
2022/03/05 08:06:13;;;;;;;41.65;31.35;;;;;;;;;;4934860;29;20093;-76
2022/03/05 08:08:39;;;;;;;39.35;28.38;;;;;;;;;;4931551;29;20028;-77
2022/03/05 08:11:05;;;;;;;41.05;31.23;;;;;;;;;;4927500;29;20048;-77
2022/03/05 08:13:31;;;;;;;41.60;29.38;;;;;;;;;;4928565;29;20028;-76
2022/03/05 08:15:58;;;;;;;32.03;24.48;;;;;;;;;;4937925;29;20055;-78
2022/03/05 08:18:24;;;;;;;37.03;25.75;;;;;;;;;;4933617;29;20035;-76
2022/03/05 08:20:50;;;;;;;35.70;26.27;;;;;;;;;;4930392;29;20058;-75
2022/03/05 08:23:17;;;;;;;34.13;23.83;;;;;;;;;;4934280;29;20030;-75
2022/03/05 08:25:43;;;;;;;32.55;23.75;;;;;;;;;;4936001;29;20123;-74
2022/03/05 08:28:09;;;;;;;29.13;23.02;;;;;;;;;;4935009;29;20032;-73
2022/03/05 08:30:35;;;;;;;30.58;23.15;;;;;;;;;;4936081;29;20482;-86
2022/03/05 08:33:01;;;;;;;36.25;25.80;;;;;;;;;;4935341;29;20066;-76
2022/03/05 08:35:27;;;;;;;27.95;21.95;;;;;;;;;;4935477;29;20034;-75
2022/03/05 08:37:54;;;;;;;28.98;21.77;;;;;;;;;;4926286;29;20040;-77
2022/03/05 08:40:20;;;;;;;31.27;21.00;;;;;;;;;;4933749;29;20386;-84
2022/03/05 08:42:50;;;;;;;28.33;20.35;;;;;;;;;;4935670;29;20027;-84
2022/03/05 08:45:16;;;;;;;27.67;20.55;;;;;;;;;;4932007;29;20028;-81
2022/03/05 08:47:44;;;;;;;31.52;22.95;;;;;;;;;;4938395;29;20080;-74
2022/03/05 08:50:10;;;;;;;23.90;18.90;;;;;;;;;;4929536;29;20028;-75
2022/03/05 08:52:39;;;;;;;31.88;20.42;;;;;;;;;;4933707;29;20086;-76
2022/03/05 08:55:06;;;;;;;28.42;21.42;;;;;;;;;;4948605;29;20161;-75
2022/03/05 08:57:35;;;;;;;29.65;22.23;;;;;;;;;;4945797;29;20024;-77
2022/03/05 09:00:05;;;;;;;28.90;21.98;;;;;;;;;;4953273;29;20056;-73
2022/03/05 09:02:55;;;;;;;33.33;23.92;;;;;;;;;;4957200;29;20024;-73
2022/03/05 09:05:27;;;;;;;32.13;23.73;;;;;;;;;;4940482;29;20048;-71
2022/03/05 09:08:03;;;;;;;35.25;23.35;;;;;;;;;;4951440;29;20044;-70
2022/03/05 09:10:32;;;;;;;37.05;23.13;;;;;;;;;;4954784;29;20024;-70
2022/03/05 09:13:25;;;;;;;35.35;22.27;;;;;;;;;;4939276;29;20044;-71
2022/03/05 09:16:33;;;;;;;33.08;20.25;;;;;;;;;;4967144;29;20139;-71
2022/03/05 09:19:09;;;;;;;30.95;20.75;;;;;;;;;;4971193;29;20091;-72
2022/03/05 09:21:36;;;;;;;27.85;18.15;;;;;;;;;;4972055;29;20039;-74
2022/03/05 09:24:05;;;;;;;29.95;18.98;;;;;;;;;;4947045;29;20082;-76
2022/03/05 09:26:32;;;;;;;32.35;21.52;;;;;;;;;;4944479;29;20024;-73
2022/03/05 09:28:58;;;;;;;45.97;21.67;;;;;;;;;;4939895;29;20024;-71
2022/03/05 09:31:27;;;;;;;35.00;20.80;;;;;;;;;;4939219;29;20046;-70
2022/03/05 09:33:53;;;;;;;33.50;20.77;;;;;;;;;;4942019;29;20091;-70
2022/03/05 09:36:19;;;;;;;33.45;20.55;;;;;;;;;;4941463;29;20020;-71
2022/03/05 09:38:45;;;;;;;34.42;20.55;;;;;;;;;;4943305;29;20091;-71
2022/03/05 09:41:11;;;;;;;29.42;20.20;;;;;;;;;;4944783;29;20032;-71
2022/03/05 09:43:37;;;;;;;29.08;19.75;;;;;;;;;;4946857;29;20036;-74
2022/03/05 09:46:05;;;;;;;33.97;21.27;;;;;;;;;;4940770;29;20058;-73
2022/03/05 09:48:32;;;;;;;34.47;21.38;;;;;;;;;;4950354;29;20026;-75
2022/03/05 09:50:59;;;;;;;30.95;21.45;;;;;;;;;;4956728;29;20036;-74
2022/03/05 09:53:29;;;;;;;32.25;20.65;;;;;;;;;;4951611;29;20426;-76
2022/03/05 09:55:57;;;;;;;31.92;20.50;;;;;;;;;;4949989;29;20164;-76
2022/03/05 09:58:26;;;;;;;29.75;20.23;;;;;;;;;;4953753;29;20057;-76
2022/03/05 10:00:55;;;;;;;34.10;20.95;;;;;;;;;;4945418;29;20040;-76
2022/03/05 10:03:24;;;;;;;34.75;22.15;;;;;;;;;;4945221;29;20064;-74
2022/03/05 10:05:50;;;;;;;28.80;19.90;;;;;;;;;;4943193;29;20039;-74
2022/03/05 10:08:17;;;;;;;30.80;19.25;;;;;;;;;;4941915;29;20035;-73
2022/03/05 10:10:46;;;;;;;28.65;19.42;;;;;;;;;;4942812;29;20381;-70
2022/03/05 10:13:17;;;;;;;30.25;20.25;;;;;;;;;;4939928;29;20362;-72
2022/03/05 10:15:43;;;;;;;27.33;19.63;;;;;;;;;;4947108;29;20016;-75
2022/03/05 10:18:09;;;;;;;34.97;20.45;;;;;;;;;;4945524;29;20444;-76
2022/03/05 10:20:42;;;;;;;31.88;20.25;;;;;;;;;;4946435;29;20028;-70
2022/03/05 10:23:09;;;;;;;29.20;19.73;;;;;;;;;;4941627;29;20371;-70
2022/03/05 10:25:38;;;;;;;31.60;20.00;;;;;;;;;;4941452;29;20039;-71
2022/03/05 10:28:27;;;;;;;33.95;20.90;;;;;;;;;;4947486;29;20027;-70
2022/03/05 10:30:53;;;;;;;32.20;20.17;;;;;;;;;;4924405;29;20430;-75
2022/03/05 10:33:25;;;;;;;32.38;20.90;;;;;;;;;;4910565;29;20072;-72
2022/03/05 10:35:52;;;;;;;29.33;18.30;;;;;;;;;;4898167;29;20073;-72
2022/03/05 10:38:18;;;;;;;31.80;21.00;;;;;;;;;;4898948;29;20028;-74
2022/03/05 10:40:44;;;;;;;32.33;21.55;;;;;;;;;;4881431;29;20073;-71
2022/03/05 10:43:10;;;;;;;30.38;19.02;;;;;;;;;;4903550;29;20116;-72
2022/03/05 10:45:58;;;;;;;37.75;20.17;;;;;;;;;;4896747;29;20037;-71
2022/03/05 10:48:36;;;;;;;31.75;19.60;;;;;;;;;;4883341;29;20032;-70
2022/03/05 10:51:06;;;;;;;25.85;17.35;;;;;;;;;;4900106;29;20033;-71
2022/03/05 10:53:35;;;;;;;28.90;19.75;;;;;;;;;;4901651;29;20039;-72
2022/03/05 10:56:20;;;;;;;31.25;18.83;;;;;;;;;;4899846;29;20068;-69
2022/03/05 10:58:56;;;;;;;29.88;19.65;;;;;;;;;;4898569;29;20513;-69
2022/03/05 11:01:22;;;;;;;26.42;18.98;;;;;;;;;;4897997;29;20067;-71
2022/03/05 11:03:49;;;;;;;31.02;19.38;;;;;;;;;;4897747;29;20040;-70
2022/03/05 11:06:15;;;;;;;27.10;18.73;;;;;;;;;;4898308;29;20031;-70
2022/03/05 11:08:44;;;;;;;27.95;18.17;;;;;;;;;;4931748;29;20521;-70
2022/03/05 11:11:10;;;;;;;27.10;17.85;;;;;;;;;;4937696;29;20089;-70
2022/03/05 11:13:36;;;;;;;25.75;17.85;;;;;;;;;;4937967;29;20063;-71
2022/03/05 11:16:02;;;;;;;31.20;18.38;;;;;;;;;;4929617;29;20028;-70
2022/03/05 11:18:29;;;;;;;29.05;18.58;;;;;;;;;;4937417;29;20032;-69
2022/03/05 11:20:55;;;;;;;28.10;18.85;;;;;;;;;;4938906;29;20023;-69
2022/03/05 11:23:22;;;;;;;23.73;16.88;;;;;;;;;;4921577;29;20029;-69
2022/03/05 11:25:48;;;;;;;28.52;14.98;;;;;;;;;;4918828;29;20028;-70
2022/03/05 11:28:19;;;;;;;26.58;17.98;;;;;;;;;;4919013;29;20025;-70
2022/03/05 11:30:45;;;;;;;25.98;18.85;;;;;;;;;;4918540;29;20028;-69
2022/03/05 11:33:12;;;;;;;27.83;18.90;;;;;;;;;;4919498;29;20498;-69
2022/03/05 11:35:43;;;;;;;31.75;19.13;;;;;;;;;;4936198;29;20497;-69
2022/03/05 11:38:27;;;;;;;36.15;17.23;;;;;;;;;;4937539;29;20035;-70
2022/03/05 11:40:53;;;;;;;28.25;17.08;;;;;;;;;;4936349;29;20034;-70
2022/03/05 11:43:23;;;;;;;25.13;18.95;;;;;;;;;;4937437;29;20250;-70
2022/03/05 11:46:04;;;;;;;26.60;18.52;;;;;;;;;;4936145;29;20069;-69
2022/03/05 11:48:33;;;;;;;28.70;18.17;;;;;;;;;;4937352;29;20079;-70
2022/03/05 11:51:07;;;;;;;26.75;19.08;;;;;;;;;;4937315;29;20035;-70
2022/03/05 11:53:33;;;;;;;29.08;18.63;;;;;;;;;;4927903;29;20036;-69
2022/03/05 11:56:19;;;;;;;24.27;17.08;;;;;;;;;;4937168;29;20098;-69
2022/03/05 11:58:45;;;;;;;25.67;18.08;;;;;;;;;;4937131;29;20122;-69
2022/03/05 12:01:31;;;;;;;26.73;18.42;;;;;;;;;;4936278;29;20047;-69
2022/03/05 12:03:58;;;;;;;29.70;18.40;;;;;;;;;;4935582;29;20047;-69
2022/03/05 12:06:24;;;;;;;28.30;18.13;;;;;;;;;;4937335;29;20452;-69
2022/03/05 12:08:53;;;;;;;26.42;18.50;;;;;;;;;;4940783;29;20023;-69
2022/03/05 12:11:21;;;;;;;25.25;16.75;;;;;;;;;;4937940;29;20042;-70
2022/03/05 12:13:52;;;;;;;25.75;16.70;;;;;;;;;;4938675;29;20039;-70
2022/03/05 12:16:20;;;;;;;22.77;15.95;;;;;;;;;;4936259;29;20040;-70
2022/03/05 12:18:46;;;;;;;23.60;16.27;;;;;;;;;;4934445;29;20034;-74
2022/03/05 12:21:13;;;;;;;21.80;15.65;;;;;;;;;;4936703;29;20038;-70
2022/03/05 12:23:39;;;;;;;26.60;16.55;;;;;;;;;;4936696;29;20474;-70
2022/03/05 12:26:06;;;;;;;26.35;18.40;;;;;;;;;;4937337;29;20482;-71
2022/03/05 12:28:40;;;;;;;24.00;17.33;;;;;;;;;;4937466;29;20102;-70
2022/03/05 12:31:06;;;;;;;26.42;18.05;;;;;;;;;;4934325;29;20059;-71
2022/03/05 12:33:33;;;;;;;25.52;18.15;;;;;;;;;;4936447;29;20136;-69
2022/03/05 12:36:01;;;;;;;27.77;18.42;;;;;;;;;;4936177;29;20045;-70
2022/03/05 12:38:27;;;;;;;28.75;18.35;;;;;;;;;;4936429;29;20103;-73
2022/03/05 12:40:53;;;;;;;29.08;19.13;;;;;;;;;;4936761;29;20031;-70
2022/03/05 12:43:19;;;;;;;24.80;18.23;;;;;;;;;;4936967;29;20034;-70
2022/03/05 12:45:48;;;;;;;28.02;17.83;;;;;;;;;;4936697;29;20107;-70
2022/03/05 12:48:15;;;;;;;27.40;18.38;;;;;;;;;;4936376;29;20034;-69
2022/03/05 12:50:46;;;;;;;26.25;17.30;;;;;;;;;;4937482;29;20031;-70
2022/03/05 12:53:19;;;;;;;29.23;17.67;;;;;;;;;;4936431;29;20102;-70
2022/03/05 12:55:55;;;;;;;25.43;17.13;;;;;;;;;;4935859;29;20055;-70
2022/03/05 12:58:22;;;;;;;25.00;17.75;;;;;;;;;;4936480;29;20501;-69
2022/03/05 13:00:49;;;;;;;24.77;17.45;;;;;;;;;;4936175;29;20126;-69
2022/03/05 13:03:16;;;;;;;25.13;17.55;;;;;;;;;;4936263;29;20460;-73
2022/03/05 13:05:43;;;;;;;26.80;17.20;;;;;;;;;;4936256;29;20031;-69
2022/03/05 13:08:29;;;;;;;26.02;17.17;;;;;;;;;;4935241;29;20039;-70
2022/03/05 13:11:04;;;;;;;25.33;17.17;;;;;;;;;;4922562;29;20047;-70
2022/03/05 13:13:30;;;;;;;25.65;17.25;;;;;;;;;;4933764;29;20115;-70
2022/03/05 13:15:57;;;;;;;26.90;17.63;;;;;;;;;;4935731;29;20493;-69
2022/03/05 13:18:23;;;;;;;27.17;17.73;;;;;;;;;;4935876;29;20063;-69
2022/03/05 13:20:49;;;;;;;27.05;17.55;;;;;;;;;;4934463;29;20493;-69
2022/03/05 13:23:19;;;;;;;26.88;18.17;;;;;;;;;;4935829;29;20039;-69
2022/03/05 13:25:46;;;;;;;27.02;17.67;;;;;;;;;;4931440;29;20486;-70
2022/03/05 13:28:19;;;;;;;27.05;17.95;;;;;;;;;;4935823;29;20131;-70
2022/03/05 13:30:49;;;;;;;30.88;19.65;;;;;;;;;;4935686;29;20067;-68
2022/03/05 13:33:33;;;;;;;26.80;17.05;;;;;;;;;;4934555;29;20039;-69
2022/03/05 13:35:58;;;;;;;;;;;;;;;;;;4935628;29;20083;-69
2022/03/05 13:38:26;;;;;;;27.95;16.65;;;;;;;;;;4934713;29;20270;-70
2022/03/05 13:40:52;;;;;;;24.58;17.40;;;;;;;;;;4935068;29;20086;-70
2022/03/05 13:43:22;;;;;;;25.08;16.30;;;;;;;;;;4935478;29;20402;-70
2022/03/05 13:45:48;;;;;;;22.77;16.00;;;;;;;;;;4935262;29;20066;-69
2022/03/05 13:48:16;;;;;;;23.73;16.08;;;;;;;;;;4935566;29;20020;-72
2022/03/05 13:50:42;;;;;;;22.35;16.98;;;;;;;;;;4935210;29;20023;-74
2022/03/05 13:53:08;;;;;;;25.00;17.25;;;;;;;;;;4935753;29;20039;-68
2022/03/05 13:55:35;;;;;;;25.70;16.85;;;;;;;;;;4934626;29;20024;-70
2022/03/05 13:58:01;;;;;;;28.90;18.25;;;;;;;;;;4924133;29;20036;-69
2022/03/05 14:00:29;;;;;;;26.55;17.48;;;;;;;;;;4916397;29;20044;-70
2022/03/05 14:02:57;;;;;;;34.63;18.83;;;;;;;;;;4928498;29;20035;-69
2022/03/05 14:05:29;;;;;;;26.00;17.85;;;;;;;;;;4936791;29;20055;-69
2022/03/05 14:08:00;;;;;;;27.17;18.20;;;;;;;;;;4935426;29;20020;-70
2022/03/05 14:10:27;;;;;;;27.75;17.90;;;;;;;;;;4936095;29;20636;-73
2022/03/05 14:12:54;;;;;;;32.80;18.08;;;;;;;;;;4935760;29;20405;-69
2022/03/05 14:15:25;;;;;;;28.98;18.20;;;;;;;;;;4933398;29;20409;-70
2022/03/05 14:18:08;;;;;;;34.55;23.15;;;;;;;;;;4937781;29;20024;-71
2022/03/05 14:20:40;;;;;;;23.35;16.85;;;;;;;;;;4948717;28;20043;-71
2022/03/05 14:23:07;;;;;;;25.10;16.40;;;;;;;;;;4935991;29;20090;-72
2022/03/05 14:25:48;;;;;;;30.02;18.88;;;;;;;;;;4936643;29;20498;-71